createdAt,value
2022-08-24T00:02:17.817Z,21.80
2022-08-24T00:07:27.524Z,21.80
2022-08-24T00:12:32.267Z,21.90
2022-08-24T00:17:37.296Z,21.80
2022-08-24T00:22:41.290Z,21.80
2022-08-24T00:27:45.131Z,21.80
2022-08-24T00:32:50.771Z,21.80
2022-08-24T00:37:54.923Z,21.80
2022-08-24T00:43:03.295Z,21.90
2022-08-24T00:48:14.887Z,21.90
2022-08-24T00:53:24.855Z,21.90
2022-08-24T00:58:32.485Z,21.80
2022-08-24T01:03:38.574Z,21.90
2022-08-24T01:08:41.990Z,21.90
2022-08-24T01:13:48.158Z,21.80
2022-08-24T01:18:52.990Z,21.80
2022-08-24T01:24:00.020Z,21.80
2022-08-24T01:29:07.986Z,21.80
2022-08-24T01:34:13.092Z,21.80
2022-08-24T01:39:21.678Z,21.80
2022-08-24T01:44:27.074Z,21.70
2022-08-24T01:49:33.822Z,21.80
2022-08-24T01:54:39.045Z,21.80
2022-08-24T01:59:47.213Z,21.80
2022-08-24T02:04:50.624Z,21.80
2022-08-24T02:09:55.343Z,21.80
2022-08-24T02:14:58.710Z,21.80
2022-08-24T02:20:02.940Z,21.80
2022-08-24T02:25:08.526Z,21.80
2022-08-24T02:30:18.694Z,21.80
2022-08-24T02:35:22.794Z,21.90
2022-08-24T02:40:27.986Z,21.90
2022-08-24T02:45:31.426Z,21.90
2022-08-24T02:50:34.963Z,21.90
2022-08-24T02:55:41.232Z,21.90
2022-08-24T03:00:48.193Z,21.90
2022-08-24T03:05:51.962Z,21.90
2022-08-24T03:10:59.083Z,21.80
2022-08-24T03:16:03.200Z,21.90
2022-08-24T03:21:07.171Z,21.90
2022-08-24T03:26:13.481Z,22.00
2022-08-24T03:31:17.029Z,21.90
2022-08-24T03:36:20.629Z,22.00
2022-08-24T03:41:25.818Z,22.00
2022-08-24T03:46:32.384Z,22.00
2022-08-24T03:51:37.171Z,22.00
2022-08-24T03:56:42.451Z,22.00
2022-08-24T04:01:45.970Z,22.00
2022-08-24T04:06:49.353Z,22.00
2022-08-24T04:11:54.056Z,22.00
2022-08-24T04:16:58.168Z,22.10
2022-08-24T04:22:01.731Z,22.00
2022-08-24T04:27:06.831Z,22.00
2022-08-24T04:32:10.472Z,22.00
2022-08-24T04:37:14.372Z,22.00
2022-08-24T04:42:19.990Z,22.00
2022-08-24T04:47:24.287Z,22.00
2022-08-24T04:52:27.957Z,22.10
2022-08-24T04:57:34.495Z,22.00
2022-08-24T05:02:44.697Z,22.10
2022-08-24T05:07:51.461Z,22.00
2022-08-24T05:12:58.639Z,22.10
2022-08-24T05:18:02.649Z,22.10
2022-08-24T05:23:08.789Z,22.10
2022-08-24T05:28:13.620Z,22.20
2022-08-24T05:33:16.961Z,22.10
2022-08-24T05:38:20.302Z,22.10
2022-08-24T05:43:25.276Z,22.10
2022-08-24T05:48:28.803Z,22.10
2022-08-24T05:53:32.413Z,22.10
2022-08-24T05:58:38.403Z,22.10
2022-08-24T06:03:42.481Z,22.20
2022-08-24T06:08:49.406Z,22.20
2022-08-24T06:13:59.114Z,22.20
2022-08-24T06:19:03.433Z,22.20
2022-08-24T06:24:08.205Z,22.20
2022-08-24T06:29:13.734Z,22.30
2022-08-24T06:34:19.617Z,22.30
2022-08-24T06:39:22.995Z,22.30
2022-08-24T06:44:28.400Z,22.30
2022-08-24T06:49:31.888Z,22.40
2022-08-24T06:54:36.858Z,22.40
2022-08-24T06:59:43.197Z,22.40
2022-08-24T07:04:47.065Z,22.40
2022-08-24T07:09:50.787Z,22.40
2022-08-24T07:14:55.848Z,22.40
2022-08-24T07:19:59.279Z,22.40
2022-08-24T07:25:02.600Z,22.40
2022-08-24T07:30:27.296Z,22.40
2022-08-24T07:35:33.580Z,22.40
2022-08-24T07:41:01.655Z,22.50
2022-08-24T07:46:02.038Z,22.50
2022-08-24T07:51:09.208Z,22.60
2022-08-24T07:56:14.379Z,22.60
2022-08-24T08:01:19.755Z,22.70
2022-08-24T08:06:23.186Z,22.70
2022-08-24T08:11:26.796Z,22.70
2022-08-24T08:16:31.615Z,22.70
2022-08-24T08:21:52.363Z,22.80
2022-08-24T08:26:55.854Z,22.80
2022-08-24T08:32:01.273Z,22.80
2022-08-24T08:37:05.012Z,22.90
2022-08-24T08:42:54.712Z,22.90
2022-08-24T08:48:27.016Z,23.00
2022-08-24T08:54:14.504Z,23.00
2022-08-24T08:59:37.380Z,23.10
2022-08-24T09:05:24.911Z,23.10
2022-08-24T09:10:48.997Z,23.20
2022-08-24T09:16:12.559Z,23.20
2022-08-24T09:21:49.516Z,23.20
2022-08-24T09:27:04.204Z,23.30
2022-08-24T09:32:27.715Z,23.30
2022-08-24T09:37:43.290Z,23.30
2022-08-24T09:43:18.013Z,23.30
2022-08-24T09:48:42.394Z,23.30
2022-08-24T09:54:18.653Z,23.30
2022-08-24T09:59:41.662Z,23.40
2022-08-24T10:04:58.245Z,23.40
2022-08-24T10:10:17.274Z,23.40
2022-08-24T10:15:28.602Z,23.40
2022-08-24T10:20:50.531Z,23.30
2022-08-24T10:26:00.906Z,23.40
2022-08-24T10:31:12.058Z,23.30
2022-08-24T10:36:28.109Z,23.40
2022-08-24T10:42:10.576Z,23.40
2022-08-24T10:47:21.750Z,23.40
2022-08-24T10:52:55.004Z,23.40
2022-08-24T10:58:07.079Z,23.40
2022-08-24T11:03:15.166Z,23.50
2022-08-24T11:08:23.810Z,23.50
2022-08-24T11:13:28.301Z,23.50
2022-08-24T11:18:49.463Z,23.50
2022-08-24T11:23:53.080Z,23.50
2022-08-24T11:29:02.084Z,23.50
2022-08-24T11:34:10.685Z,23.50
2022-08-24T11:39:22.660Z,23.60
2022-08-24T11:44:39.075Z,23.70
2022-08-24T11:49:51.508Z,23.70
2022-08-24T11:55:02.630Z,23.80
2022-08-24T12:00:12.780Z,23.90
2022-08-24T12:05:27.174Z,23.90
2022-08-24T12:10:39.098Z,24.00
2022-08-24T12:15:52.128Z,24.00
2022-08-24T12:20:58.407Z,24.10
2022-08-24T12:26:05.649Z,24.20
2022-08-24T12:31:19.018Z,24.30
2022-08-24T12:36:29.659Z,24.40
2022-08-24T12:41:35.696Z,24.60
2022-08-24T12:46:43.103Z,24.60
2022-08-24T12:52:14.118Z,24.60
2022-08-24T12:57:51.864Z,24.70
2022-08-24T13:03:01.777Z,24.60
2022-08-24T13:08:13.930Z,24.70
2022-08-24T13:13:22.399Z,24.70
2022-08-24T13:19:13.595Z,24.70
2022-08-24T13:25:01.982Z,24.80
2022-08-24T13:30:08.697Z,24.80
2022-08-24T13:35:31.605Z,24.90
2022-08-24T13:40:49.385Z,25.10
2022-08-24T13:45:57.977Z,25.30
2022-08-24T13:51:25.587Z,25.50
2022-08-24T13:56:45.513Z,25.70
2022-08-24T14:02:03.866Z,25.90
2022-08-24T14:07:15.702Z,26.20
2022-08-24T14:12:38.343Z,26.40
2022-08-24T14:17:55.520Z,26.50
2022-08-24T14:23:07.053Z,26.70
2022-08-24T14:28:38.685Z,26.90
2022-08-24T14:33:50.603Z,27.30
2022-08-24T14:39:03.937Z,27.60
2022-08-24T14:44:19.892Z,27.90
2022-08-24T14:49:34.898Z,28.30
2022-08-24T14:54:48.698Z,28.80
2022-08-24T15:00:08.027Z,29.20
2022-08-24T15:05:22.072Z,29.60
2022-08-24T15:10:29.245Z,30.10
2022-08-24T15:15:40.739Z,30.70
2022-08-24T15:20:57.969Z,31.00
2022-08-24T15:26:08.302Z,31.20
2022-08-24T15:31:22.268Z,31.60
2022-08-24T15:36:26.361Z,31.70
2022-08-24T15:41:33.030Z,32.00
2022-08-24T15:46:40.821Z,32.30
2022-08-24T15:51:51.879Z,32.70
2022-08-24T15:56:58.513Z,33.00
2022-08-24T16:02:30.519Z,33.20
2022-08-24T16:08:05.428Z,33.50
2022-08-24T16:13:14.260Z,33.60
2022-08-24T16:18:20.634Z,33.80
2022-08-24T16:23:28.304Z,33.90
2022-08-24T16:28:37.817Z,34.00
2022-08-24T16:33:44.635Z,34.00
2022-08-24T16:38:54.253Z,33.90
2022-08-24T16:43:58.239Z,33.70
2022-08-24T16:49:01.871Z,33.50
2022-08-24T16:54:07.063Z,33.40
2022-08-24T16:59:15.331Z,33.10
2022-08-24T17:04:18.989Z,32.90
2022-08-24T17:09:23.773Z,32.60
2022-08-24T17:14:27.122Z,32.40
2022-08-24T17:19:32.408Z,32.10
2022-08-24T17:24:37.449Z,31.80
2022-08-24T17:29:41.861Z,31.50
2022-08-24T17:34:45.485Z,31.30
2022-08-24T17:39:55.076Z,31.00
2022-08-24T17:44:59.176Z,30.80
2022-08-24T17:50:06.071Z,30.60
2022-08-24T17:55:14.279Z,30.30
2022-08-24T18:00:17.879Z,30.10
2022-08-24T18:05:21.880Z,29.80
2022-08-24T18:10:29.026Z,29.50
2022-08-24T18:15:36.398Z,29.20
2022-08-24T18:20:42.555Z,29.00
2022-08-24T18:25:50.528Z,28.70
2022-08-24T18:30:54.296Z,28.50
2022-08-24T18:35:58.225Z,28.40
2022-08-24T18:41:04.125Z,28.20
2022-08-24T18:46:08.699Z,28.10
2022-08-24T18:51:21.951Z,27.90
2022-08-24T18:56:27.386Z,27.80
2022-08-24T19:01:31.641Z,27.80
2022-08-24T19:06:35.518Z,27.70
2022-08-24T19:11:40.496Z,27.60
2022-08-24T19:16:43.883Z,27.50
2022-08-24T19:21:47.672Z,27.40
2022-08-24T19:26:53.008Z,27.30
2022-08-24T19:31:56.720Z,27.20
2022-08-24T19:37:00.510Z,27.10
2022-08-24T19:42:06.849Z,27.00
2022-08-24T19:47:14.870Z,27.00
2022-08-24T19:52:18.513Z,26.90
2022-08-24T19:57:41.596Z,26.80
2022-08-24T20:02:45.897Z,26.70
2022-08-24T20:07:49.839Z,26.50
2022-08-24T20:12:55.119Z,26.40
2022-08-24T20:17:59.414Z,26.40
2022-08-24T20:23:03.294Z,26.30
2022-08-24T20:33:32.099Z,26.20
2022-08-24T20:38:35.750Z,26.10
2022-08-24T20:43:41.030Z,26.10
2022-08-24T20:48:44.964Z,26.10
2022-08-24T20:53:49.034Z,26.00
2022-08-24T20:58:53.776Z,26.00
2022-08-24T21:04:01.509Z,26.00
2022-08-24T21:09:14.223Z,25.90
2022-08-24T21:14:20.404Z,25.80
2022-08-24T21:19:23.843Z,25.70
2022-08-24T21:24:27.583Z,25.60
2022-08-24T21:29:33.117Z,25.50
2022-08-24T21:34:42.696Z,25.30
2022-08-24T21:39:47.542Z,25.20
2022-08-24T21:44:53.242Z,25.10
2022-08-24T21:49:57.303Z,25.00
2022-08-24T21:55:01.172Z,24.80
2022-08-24T22:00:08.738Z,24.80
2022-08-24T22:05:12.114Z,24.70
2022-08-24T22:10:15.561Z,24.70
2022-08-24T22:15:23.250Z,24.60
2022-08-24T22:20:27.108Z,24.50
2022-08-24T22:25:30.628Z,24.50
2022-08-24T22:30:35.577Z,24.40
2022-08-24T22:35:44.983Z,24.40
2022-08-24T22:40:54.935Z,24.30
2022-08-24T22:45:59.868Z,24.30
2022-08-24T22:51:03.407Z,24.30
2022-08-24T22:56:16.037Z,24.30
2022-08-24T23:01:22.747Z,24.30
2022-08-24T23:06:26.505Z,24.30
2022-08-24T23:11:31.045Z,24.20
2022-08-24T23:16:39.595Z,24.10
2022-08-24T23:21:43.895Z,24.10
2022-08-24T23:26:47.298Z,24.00
2022-08-24T23:31:53.619Z,24.00
2022-08-24T23:36:57.307Z,23.90
2022-08-24T23:42:01.028Z,23.80
2022-08-24T23:47:06.267Z,23.80
2022-08-24T23:52:26.548Z,23.80
2022-08-24T23:57:33.148Z,23.70
